Quick Links (Output Below):   Max & Min Temps   /   Climate Reports   /   Zone Forecasts
River Forecasts   /   Forestry Forecasts   /   Aviation Forecasts   /   Radars   /   Features

Terminal Aerodrome Forecast (Jonesboro)

Pick a Site:
Arkadelphia | El Dorado | Fayetteville | Fort Smith | Harrison | Highfill | Hot Springs | Jonesboro
Little Rock | Monticello | Mountain Home | Pine Bluff | Texarkana
 Forecast 

KJBR 161737Z 1618/1718 14010KT P6SM SCT250
     FM170200 VRB03KT P6SM SCT250
     FM171500 17010KT P6SM SCT250=


 Latest METARs (Observations) 
How to Decode METARs
19Z KJBR 161853Z AUTO VRB04KT 10SM CLR 12/M02 A3021 RMK AO2 SLP232
         T01171022
         
18Z KJBR 161753Z AUTO 12008KT 10SM CLR 11/M01 A3024 RMK AO2 SLP241
         T01111011 10111 20022 58020
         
17Z KJBR 161653Z AUTO VRB06G14KT 10SM CLR 10/M02 A3027 RMK AO2 SLP252
         T01001022
         
16Z KJBR 161553Z AUTO 13009KT 10SM CLR 09/M02 A3030 RMK AO2 SLP259
         T00891022
         
15Z KJBR 161453Z AUTO 14010KT 10SM CLR 08/M03 A3030 RMK AO2 SLP262
         T00781028 51010
         
14Z KJBR 161353Z AUTO 13014KT 10SM CLR 07/M03 A3030 RMK AO2 SLP260
         T00671028
         
13Z KJBR 161253Z AUTO 12008KT 10SM CLR 05/M02 A3029 RMK AO2 SLP255
         T00501017
         
12Z KJBR 161153Z AUTO 10004KT 10SM CLR 02/M01 A3027 RMK AO2 SLP251
         T00221011 10033 20006 53011
         
11Z KJBR 161053Z AUTO 06004KT 10SM CLR 01/M01 A3025 RMK AO2 SLP243
         T00111011
         
10Z KJBR 160953Z AUTO 06003KT 10SM CLR 01/M01 A3023 RMK AO2 SLP237
         T00061011
         
***** Today's Observations (Above) *****


Back to Main Page
http://www.srh.noaa.gov/lzk/qfcst.php

USA.gov is the U.S. government's official web portal to all federal, state and local government web resources and services.